Chesterfield Township, New Jersey
Current Conditions -  °F | °C
As of 5:58 PM on Saturday 20 Dec 2014 (Local Time) from KWRI Reporting Station
Overcast Overcast  
Wind Chill: 31°   Ceiling: 2900
Heat Index: 31°   Visibility: 10mi
Dew Point: 22°   Wind: 3mph
Humidity: 69%   Direction: 360°N
Pressure: 30.26"   Gusts: NA
Location:  40.144°N, 74.6589°W
Report Text: KWRI 202258Z AUTO 36003KT 10SM OVC029 00/M05 A3026 RMK AO2 SLP252 T10041054 $
Loading
Personal Weather Stations






























Interactive Weather Map New forecast layout! Learn more

10-Day Weather Forecast

Advertisements
Track Severe Weather on mobile